sensor_id;sensor_type;location;lat;lon;timestamp;pressure;altitude;pressure_sealevel;temperature;humidity
498;BME280;39559;48.630;9.162;2024-01-27T00:00:09;99252.25;;;-1.46;100.00
498;BME280;39559;48.630;9.162;2024-01-27T00:02:35;99255.75;;;-1.43;100.00
498;BME280;39559;48.630;9.162;2024-01-27T00:05:02;99256.56;;;-1.44;100.00
498;BME280;39559;48.630;9.162;2024-01-27T00:07:28;99250.06;;;-1.36;100.00
498;BME280;39559;48.630;9.162;2024-01-27T00:09:57;99246.78;;;-1.31;100.00
498;BME280;39559;48.630;9.162;2024-01-27T00:14:27;99242.78;;;-1.25;100.00
498;BME280;39559;48.630;9.162;2024-01-27T00:16:52;99236.44;;;-1.62;100.00
498;BME280;39559;48.630;9.162;2024-01-27T00:19:18;99256.47;;;-1.72;100.00
498;BME280;39559;48.630;9.162;2024-01-27T00:21:43;99256.41;;;-1.74;100.00
498;BME280;39559;48.630;9.162;2024-01-27T00:24:09;99258.09;;;-1.75;100.00
498;BME280;39559;48.630;9.162;2024-01-27T00:26:34;99270.16;;;-1.69;100.00
498;BME280;39559;48.630;9.162;2024-01-27T00:29:00;99263.25;;;-1.71;100.00
498;BME280;39559;48.630;9.162;2024-01-27T00:31:25;99276.97;;;-1.68;100.00
498;BME280;39559;48.630;9.162;2024-01-27T00:33:51;99267.72;;;-1.66;100.00
498;BME280;39559;48.630;9.162;2024-01-27T00:38:25;99268.41;;;-1.70;100.00
498;BME280;39559;48.630;9.162;2024-01-27T00:40:51;99265.66;;;-1.76;100.00
498;BME280;39559;48.630;9.162;2024-01-27T00:43:17;99272.47;;;-1.75;100.00
498;BME280;39559;48.630;9.162;2024-01-27T00:45:42;99270.91;;;-1.71;100.00
498;BME280;39559;48.630;9.162;2024-01-27T00:48:08;99279.59;;;-1.66;100.00
498;BME280;39559;48.630;9.162;2024-01-27T00:50:33;99273.13;;;-1.81;100.00
498;BME280;39559;48.630;9.162;2024-01-27T00:52:59;99277.19;;;-1.86;100.00
498;BME280;39559;48.630;9.162;2024-01-27T00:55:24;99287.28;;;-2.12;100.00
498;BME280;39559;48.630;9.162;2024-01-27T00:57:50;99291.47;;;-2.14;100.00
498;BME280;39559;48.630;9.162;2024-01-27T01:02:26;99301.78;;;-2.10;100.00
498;BME280;39559;48.630;9.162;2024-01-27T01:04:51;99299.22;;;-2.10;100.00
498;BME280;39559;48.630;9.162;2024-01-27T01:07:17;99297.25;;;-2.18;100.00
498;BME280;39559;48.630;9.162;2024-01-27T01:09:42;99300.66;;;-2.17;100.00
498;BME280;39559;48.630;9.162;2024-01-27T01:12:08;99303.03;;;-1.99;100.00
498;BME280;39559;48.630;9.162;2024-01-27T01:14:34;99301.34;;;-1.99;100.00
498;BME280;39559;48.630;9.162;2024-01-27T01:17:00;99306.03;;;-2.09;100.00
498;BME280;39559;48.630;9.162;2024-01-27T01:19:26;99301.59;;;-2.15;100.00
498;BME280;39559;48.630;9.162;2024-01-27T01:21:51;99306.00;;;-2.11;100.00
498;BME280;39559;48.630;9.162;2024-01-27T01:26:26;99306.09;;;-2.53;100.00
498;BME280;39559;48.630;9.162;2024-01-27T01:28:52;99313.56;;;-2.35;100.00
498;BME280;39559;48.630;9.162;2024-01-27T01:31:17;99320.56;;;-2.29;100.00
498;BME280;39559;48.630;9.162;2024-01-27T01:33:44;99319.81;;;-2.27;100.00
498;BME280;39559;48.630;9.162;2024-01-27T01:36:09;99317.28;;;-2.27;100.00
498;BME280;39559;48.630;9.162;2024-01-27T01:38:35;99319.00;;;-2.26;100.00
498;BME280;39559;48.630;9.162;2024-01-27T01:41:01;99307.03;;;-2.28;100.00
498;BME280;39559;48.630;9.162;2024-01-27T01:43:26;99304.91;;;-2.18;100.00
498;BME280;39559;48.630;9.162;2024-01-27T01:45:53;99302.63;;;-2.10;100.00
498;BME280;39559;48.630;9.162;2024-01-27T01:50:26;99304.91;;;-2.18;100.00
498;BME280;39559;48.630;9.162;2024-01-27T01:52:53;99304.03;;;-2.18;100.00
498;BME280;39559;48.630;9.162;2024-01-27T01:55:19;99304.03;;;-2.18;100.00
498;BME280;39559;48.630;9.162;2024-01-27T01:57:45;99296.03;;;-2.27;100.00
498;BME280;39559;48.630;9.162;2024-01-27T02:00:12;99309.38;;;-2.33;100.00
498;BME280;39559;48.630;9.162;2024-01-27T02:02:39;99309.97;;;-2.40;100.00
498;BME280;39559;48.630;9.162;2024-01-27T02:05:05;99315.06;;;-2.40;100.00
498;BME280;39559;48.630;9.162;2024-01-27T02:07:30;99317.78;;;-2.36;100.00
498;BME280;39559;48.630;9.162;2024-01-27T02:09:56;99315.69;;;-2.46;100.00
498;BME280;39559;48.630;9.162;2024-01-27T02:14:27;99326.47;;;-2.74;100.00
498;BME280;39559;48.630;9.162;2024-01-27T02:16:53;99338.97;;;-2.79;100.00
498;BME280;39559;48.630;9.162;2024-01-27T02:19:19;99343.97;;;-2.82;100.00
498;BME280;39559;48.630;9.162;2024-01-27T02:21:45;99350.28;;;-2.72;100.00
498;BME280;39559;48.630;9.162;2024-01-27T02:24:10;99348.84;;;-2.65;100.00
498;BME280;39559;48.630;9.162;2024-01-27T02:26:36;99338.63;;;-2.67;100.00
498;BME280;39559;48.630;9.162;2024-01-27T02:29:02;99346.41;;;-2.62;100.00
498;BME280;39559;48.630;9.162;2024-01-27T02:31:28;99350.66;;;-2.63;100.00
498;BME280;39559;48.630;9.162;2024-01-27T02:33:54;99357.97;;;-2.71;100.00
498;BME280;39559;48.630;9.162;2024-01-27T02:38:28;99358.69;;;-2.73;100.00
498;BME280;39559;48.630;9.162;2024-01-27T02:40:53;99364.53;;;-2.76;100.00
498;BME280;39559;48.630;9.162;2024-01-27T02:43:19;99373.16;;;-2.72;100.00
498;BME280;39559;48.630;9.162;2024-01-27T02:45:44;99375.47;;;-2.78;100.00
498;BME280;39559;48.630;9.162;2024-01-27T02:48:10;99369.31;;;-2.83;100.00
498;BME280;39559;48.630;9.162;2024-01-27T02:50:35;99377.94;;;-2.80;100.00
498;BME280;39559;48.630;9.162;2024-01-27T02:53:01;99384.31;;;-2.68;100.00
498;BME280;39559;48.630;9.162;2024-01-27T02:55:26;99381.59;;;-2.73;100.00
498;BME280;39559;48.630;9.162;2024-01-27T02:57:52;99378.94;;;-2.76;100.00
498;BME280;39559;48.630;9.162;2024-01-27T03:02:29;99374.09;;;-2.70;100.00
498;BME280;39559;48.630;9.162;2024-01-27T03:04:55;99384.56;;;-2.62;100.00
498;BME280;39559;48.630;9.162;2024-01-27T03:07:20;99377.13;;;-2.58;100.00
498;BME280;39559;48.630;9.162;2024-01-27T03:09:45;99376.84;;;-2.65;100.00
498;BME280;39559;48.630;9.162;2024-01-27T03:12:11;99372.66;;;-2.63;100.00
498;BME280;39559;48.630;9.162;2024-01-27T03:14:37;99365.22;;;-2.80;100.00
498;BME280;39559;48.630;9.162;2024-01-27T03:17:02;99372.47;;;-2.89;100.00
498;BME280;39559;48.630;9.162;2024-01-27T03:19:28;99372.22;;;-2.95;100.00
498;BME280;39559;48.630;9.162;2024-01-27T03:21:53;99382.75;;;-2.86;100.00
498;BME280;39559;48.630;9.162;2024-01-27T03:26:29;99369.25;;;-2.85;100.00
498;BME280;39559;48.630;9.162;2024-01-27T03:28:55;99375.81;;;-2.90;100.00
498;BME280;39559;48.630;9.162;2024-01-27T03:31:21;99378.91;;;-2.97;100.00
498;BME280;39559;48.630;9.162;2024-01-27T03:33:46;99378.91;;;-2.97;100.00
498;BME280;39559;48.630;9.162;2024-01-27T03:36:12;99395.38;;;-2.89;100.00
498;BME280;39559;48.630;9.162;2024-01-27T03:38:40;99394.25;;;-2.75;100.00
498;BME280;39559;48.630;9.162;2024-01-27T03:41:06;99401.81;;;-2.76;100.00
498;BME280;39559;48.630;9.162;2024-01-27T03:43:33;99399.75;;;-2.85;100.00
498;BME280;39559;48.630;9.162;2024-01-27T03:45:59;99403.16;;;-3.25;100.00
498;BME280;39559;48.630;9.162;2024-01-27T03:50:31;99419.88;;;-3.30;100.00
498;BME280;39559;48.630;9.162;2024-01-27T03:52:56;99424.56;;;-3.20;100.00
498;BME280;39559;48.630;9.162;2024-01-27T03:55:21;99428.09;;;-3.16;100.00
498;BME280;39559;48.630;9.162;2024-01-27T03:57:47;99424.13;;;-3.10;100.00
498;BME280;39559;48.630;9.162;2024-01-27T04:00:13;99422.00;;;-3.20;100.00
498;BME280;39559;48.630;9.162;2024-01-27T04:02:38;99424.09;;;-3.31;100.00
498;BME280;39559;48.630;9.162;2024-01-27T04:05:05;99427.81;;;-3.22;100.00
498;BME280;39559;48.630;9.162;2024-01-27T04:07:31;99423.72;;;-3.19;100.00
498;BME280;39559;48.630;9.162;2024-01-27T04:09:57;99424.41;;;-3.23;100.00
498;BME280;39559;48.630;9.162;2024-01-27T04:14:32;99422.41;;;-3.11;100.00
498;BME280;39559;48.630;9.162;2024-01-27T04:16:57;99413.97;;;-3.10;100.00
498;BME280;39559;48.630;9.162;2024-01-27T04:19:23;99403.69;;;-3.13;100.00
498;BME280;39559;48.630;9.162;2024-01-27T04:21:51;99405.25;;;-3.15;100.00
498;BME280;39559;48.630;9.162;2024-01-27T04:24:17;99410.03;;;-3.22;100.00
498;BME280;39559;48.630;9.162;2024-01-27T04:26:43;99412.50;;;-3.24;100.00
498;BME280;39559;48.630;9.162;2024-01-27T04:29:08;99419.06;;;-3.29;100.00
498;BME280;39559;48.630;9.162;2024-01-27T04:31:34;99422.94;;;-3.37;100.00
498;BME280;39559;48.630;9.162;2024-01-27T04:34:04;99431.84;;;-3.47;100.00
498;BME280;39559;48.630;9.162;2024-01-27T04:38:33;99434.97;;;-3.53;100.00
498;BME280;39559;48.630;9.162;2024-01-27T04:40:59;99426.38;;;-3.55;100.00
498;BME280;39559;48.630;9.162;2024-01-27T04:43:24;99433.56;;;-3.46;100.00
498;BME280;39559;48.630;9.162;2024-01-27T04:45:50;99428.91;;;-3.55;100.00
498;BME280;39559;48.630;9.162;2024-01-27T04:48:15;99439.91;;;-3.56;100.00
498;BME280;39559;48.630;9.162;2024-01-27T04:50:41;99432.34;;;-3.54;100.00
498;BME280;39559;48.630;9.162;2024-01-27T04:53:07;99433.88;;;-3.58;100.00
498;BME280;39559;48.630;9.162;2024-01-27T04:55:32;99432.94;;;-3.60;100.00
498;BME280;39559;48.630;9.162;2024-01-27T04:57:58;99438.66;;;-3.64;100.00
498;BME280;39559;48.630;9.162;2024-01-27T05:02:34;99438.41;;;-3.70;100.00
498;BME280;39559;48.630;9.162;2024-01-27T05:05:01;99435.41;;;-3.61;100.00
498;BME280;39559;48.630;9.162;2024-01-27T05:07:28;99437.50;;;-3.53;100.00
498;BME280;39559;48.630;9.162;2024-01-27T05:09:54;99436.31;;;-3.41;100.00
498;BME280;39559;48.630;9.162;2024-01-27T05:12:19;99432.94;;;-3.40;100.00
498;BME280;39559;48.630;9.162;2024-01-27T05:14:46;99433.78;;;-3.41;100.00
498;BME280;39559;48.630;9.162;2024-01-27T05:17:11;99432.34;;;-3.54;100.00
498;BME280;39559;48.630;9.162;2024-01-27T05:19:37;99433.66;;;-3.62;100.00
498;BME280;39559;48.630;9.162;2024-01-27T05:22:02;99431.78;;;-3.67;100.00
498;BME280;39559;48.630;9.162;2024-01-27T05:26:35;99439.75;;;-3.59;100.00
498;BME280;39559;48.630;9.162;2024-01-27T05:29:01;99442.28;;;-3.59;100.00
498;BME280;39559;48.630;9.162;2024-01-27T05:31:27;99435.59;;;-3.57;100.00
498;BME280;39559;48.630;9.162;2024-01-27T05:33:52;99430.25;;;-3.63;100.00
498;BME280;39559;48.630;9.162;2024-01-27T05:36:18;99427.19;;;-3.56;100.00
498;BME280;39559;48.630;9.162;2024-01-27T05:38:43;99427.69;;;-3.45;100.00
498;BME280;39559;48.630;9.162;2024-01-27T05:41:09;99427.47;;;-3.50;100.00
498;BME280;39559;48.630;9.162;2024-01-27T05:43:34;99421.53;;;-3.50;100.00
498;BME280;39559;48.630;9.162;2024-01-27T05:46:00;99411.16;;;-3.55;100.00
498;BME280;39559;48.630;9.162;2024-01-27T05:50:41;99415.25;;;-3.58;100.00
498;BME280;39559;48.630;9.162;2024-01-27T05:53:07;99414.41;;;-3.77;100.00
498;BME280;39559;48.630;9.162;2024-01-27T05:55:33;99414.78;;;-3.87;100.00
498;BME280;39559;48.630;9.162;2024-01-27T05:57:59;99420.50;;;-3.91;100.00
498;BME280;39559;48.630;9.162;2024-01-27T06:00:24;99425.47;;;-3.75;100.00
498;BME280;39559;48.630;9.162;2024-01-27T06:02:50;99424.78;;;-3.72;100.00
498;BME280;39559;48.630;9.162;2024-01-27T06:05:16;99431.13;;;-3.82;100.00
498;BME280;39559;48.630;9.162;2024-01-27T06:07:42;99426.91;;;-3.99;100.00
498;BME280;39559;48.630;9.162;2024-01-27T06:10:08;99427.84;;;-3.97;100.00
498;BME280;39559;48.630;9.162;2024-01-27T06:14:40;99426.13;;;-4.16;100.00
498;BME280;39559;48.630;9.162;2024-01-27T06:17:06;99433.31;;;-4.26;100.00
498;BME280;39559;48.630;9.162;2024-01-27T06:19:31;99439.88;;;-4.47;100.00
498;BME280;39559;48.630;9.162;2024-01-27T06:21:57;99445.09;;;-4.44;100.00
498;BME280;39559;48.630;9.162;2024-01-27T06:24:23;99435.38;;;-4.53;100.00
498;BME280;39559;48.630;9.162;2024-01-27T06:26:49;99457.72;;;-4.28;100.00
498;BME280;39559;48.630;9.162;2024-01-27T06:29:14;99466.34;;;-4.06;100.00
498;BME280;39559;48.630;9.162;2024-01-27T06:31:40;99463.31;;;-3.99;100.00
498;BME280;39559;48.630;9.162;2024-01-27T06:34:05;99455.56;;;-4.02;100.00
498;BME280;39559;48.630;9.162;2024-01-27T06:38:41;99451.94;;;-3.89;100.00
498;BME280;39559;48.630;9.162;2024-01-27T06:41:07;99460.41;;;-3.89;100.00
498;BME280;39559;48.630;9.162;2024-01-27T06:43:32;99460.41;;;-3.89;100.00
498;BME280;39559;48.630;9.162;2024-01-27T06:45:58;99458.88;;;-4.03;100.00
498;BME280;39559;48.630;9.162;2024-01-27T06:48:23;99473.09;;;-4.25;100.00
498;BME280;39559;48.630;9.162;2024-01-27T06:50:52;99468.44;;;-4.15;100.00
498;BME280;39559;48.630;9.162;2024-01-27T06:53:18;99471.34;;;-4.26;100.00
498;BME280;39559;48.630;9.162;2024-01-27T06:55:45;99464.69;;;-4.23;100.00
498;BME280;39559;48.630;9.162;2024-01-27T06:58:10;99466.84;;;-4.13;100.00
498;BME280;39559;48.630;9.162;2024-01-27T07:02:43;99472.59;;;-3.99;100.00
498;BME280;39559;48.630;9.162;2024-01-27T07:05:09;99470.78;;;-4.02;100.00
498;BME280;39559;48.630;9.162;2024-01-27T07:07:35;99463.81;;;-4.06;100.00
498;BME280;39559;48.630;9.162;2024-01-27T07:10:01;99458.66;;;-4.08;100.00
498;BME280;39559;48.630;9.162;2024-01-27T07:12:27;99458.72;;;-4.06;100.00
498;BME280;39559;48.630;9.162;2024-01-27T07:14:53;99463.69;;;-4.09;100.00
498;BME280;39559;48.630;9.162;2024-01-27T07:17:20;99464.22;;;-4.15;100.00
498;BME280;39559;48.630;9.162;2024-01-27T07:19:46;99456.06;;;-4.27;100.00
498;BME280;39559;48.630;9.162;2024-01-27T07:22:12;99461.72;;;-4.33;100.00
498;BME280;39559;48.630;9.162;2024-01-27T07:26:45;99463.75;;;-4.26;100.00
498;BME280;39559;48.630;9.162;2024-01-27T07:29:10;99461.56;;;-4.36;100.00
498;BME280;39559;48.630;9.162;2024-01-27T07:31:36;99465.75;;;-4.36;100.00
498;BME280;39559;48.630;9.162;2024-01-27T07:34:02;99470.88;;;-4.35;100.00
498;BME280;39559;48.630;9.162;2024-01-27T07:36:27;99461.56;;;-4.18;100.00
498;BME280;39559;48.630;9.162;2024-01-27T07:38:57;99465.41;;;-4.26;100.00
498;BME280;39559;48.630;9.162;2024-01-27T07:41:23;99465.03;;;-4.34;100.00
498;BME280;39559;48.630;9.162;2024-01-27T07:43:48;99458.88;;;-4.21;100.00
498;BME280;39559;48.630;9.162;2024-01-27T07:46:14;99459.75;;;-4.20;100.00
498;BME280;39559;48.630;9.162;2024-01-27T07:50:47;99458.66;;;-4.08;100.00
498;BME280;39559;48.630;9.162;2024-01-27T07:53:15;99464.69;;;-4.06;100.00
498;BME280;39559;48.630;9.162;2024-01-27T07:55:41;99465.31;;;-4.10;100.00
498;BME280;39559;48.630;9.162;2024-01-27T07:58:07;99468.28;;;-4.00;100.00
498;BME280;39559;48.630;9.162;2024-01-27T08:00:32;99463.53;;;-3.94;100.00
498;BME280;39559;48.630;9.162;2024-01-27T08:02:58;99462.00;;;-3.91;100.00
498;BME280;39559;48.630;9.162;2024-01-27T08:05:23;99463.59;;;-3.93;100.00
498;BME280;39559;48.630;9.162;2024-01-27T08:07:49;99451.69;;;-3.94;100.00
498;BME280;39559;48.630;9.162;2024-01-27T08:10:15;99453.22;;;-4.15;100.00
498;BME280;39559;48.630;9.162;2024-01-27T08:14:49;99462.72;;;-4.11;100.00
498;BME280;39559;48.630;9.162;2024-01-27T08:17:15;99466.84;;;-3.95;100.00
498;BME280;39559;48.630;9.162;2024-01-27T08:19:40;99462.63;;;-3.77;100.00
498;BME280;39559;48.630;9.162;2024-01-27T08:22:06;99455.59;;;-3.64;100.00
498;BME280;39559;48.630;9.162;2024-01-27T08:24:34;99468.03;;;-3.89;100.00
498;BME280;39559;48.630;9.162;2024-01-27T08:27:00;99472.84;;;-3.75;100.00
498;BME280;39559;48.630;9.162;2024-01-27T08:29:26;99484.34;;;-3.46;100.00
498;BME280;39559;48.630;9.162;2024-01-27T08:31:52;99479.00;;;-3.52;100.00
498;BME280;39559;48.630;9.162;2024-01-27T08:34:17;99484.31;;;-3.65;100.00
498;BME280;39559;48.630;9.162;2024-01-27T08:38:52;99478.25;;;-3.50;100.00
498;BME280;39559;48.630;9.162;2024-01-27T08:41:18;99466.63;;;-3.44;100.00
498;BME280;39559;48.630;9.162;2024-01-27T08:43:43;99467.69;;;-3.21;100.00
498;BME280;39559;48.630;9.162;2024-01-27T08:46:09;99463.19;;;-3.08;100.00
498;BME280;39559;48.630;9.162;2024-01-27T08:48:37;99453.09;;;-3.06;100.00
498;BME280;39559;48.630;9.162;2024-01-27T08:51:03;99447.69;;;-2.94;100.00
498;BME280;39559;48.630;9.162;2024-01-27T08:53:29;99440.88;;;-2.74;100.00
498;BME280;39559;48.630;9.162;2024-01-27T08:55:55;99452.75;;;-2.75;100.00
498;BME280;39559;48.630;9.162;2024-01-27T08:58:20;99449.97;;;-2.60;100.00
498;BME280;39559;48.630;9.162;2024-01-27T09:02:55;99460.78;;;-2.23;100.00
498;BME280;39559;48.630;9.162;2024-01-27T09:05:20;99461.38;;;-2.08;100.00
498;BME280;39559;48.630;9.162;2024-01-27T09:07:46;99462.28;;;-1.85;100.00
498;BME280;39559;48.630;9.162;2024-01-27T09:10:12;99470.09;;;-1.58;100.00
498;BME280;39559;48.630;9.162;2024-01-27T09:12:39;99470.00;;;-1.38;100.00
498;BME280;39559;48.630;9.162;2024-01-27T09:15:05;99471.06;;;-1.09;100.00
498;BME280;39559;48.630;9.162;2024-01-27T09:17:32;99470.25;;;-0.82;100.00
498;BME280;39559;48.630;9.162;2024-01-27T09:19:58;99474.56;;;-0.04;100.00
498;BME280;39559;48.630;9.162;2024-01-27T09:22:23;99460.75;;;0.16;100.00
498;BME280;39559;48.630;9.162;2024-01-27T09:26:56;99454.34;;;0.90;100.00
498;BME280;39559;48.630;9.162;2024-01-27T09:29:22;99445.72;;;1.17;100.00
498;BME280;39559;48.630;9.162;2024-01-27T09:31:47;99447.94;;;1.04;100.00
498;BME280;39559;48.630;9.162;2024-01-27T09:34:13;99434.19;;;0.70;100.00
498;BME280;39559;48.630;9.162;2024-01-27T09:36:39;99426.00;;;1.14;100.00
498;BME280;39559;48.630;9.162;2024-01-27T09:39:04;99430.66;;;1.62;100.00
498;BME280;39559;48.630;9.162;2024-01-27T09:41:31;99419.63;;;2.41;100.00
498;BME280;39559;48.630;9.162;2024-01-27T09:44:03;99419.50;;;2.36;100.00
498;BME280;39559;48.630;9.162;2024-01-27T09:46:31;99397.47;;;3.34;100.00
498;BME280;39559;48.630;9.162;2024-01-27T09:50:58;99389.22;;;3.54;100.00
498;BME280;39559;48.630;9.162;2024-01-27T09:53:25;99393.34;;;3.99;100.00
498;BME280;39559;48.630;9.162;2024-01-27T09:55:50;99394.53;;;3.64;100.00
498;BME280;39559;48.630;9.162;2024-01-27T09:58:16;99407.34;;;3.63;100.00
498;BME280;39559;48.630;9.162;2024-01-27T10:00:43;99409.66;;;4.01;100.00
498;BME280;39559;48.630;9.162;2024-01-27T10:03:09;99407.06;;;5.45;100.00
498;BME280;39559;48.630;9.162;2024-01-27T10:05:35;99404.72;;;4.80;100.00
498;BME280;39559;48.630;9.162;2024-01-27T10:08:01;99402.66;;;5.33;100.00
498;BME280;39559;48.630;9.162;2024-01-27T10:10:27;99408.00;;;5.51;100.00
498;BME280;39559;48.630;9.162;2024-01-27T10:15:00;99394.72;;;6.12;100.00
498;BME280;39559;48.630;9.162;2024-01-27T10:17:26;99399.53;;;4.79;100.00
498;BME280;39559;48.630;9.162;2024-01-27T10:20:04;99391.81;;;5.71;100.00
498;BME280;39559;48.630;9.162;2024-01-27T10:22:40;99389.31;;;5.79;100.00
498;BME280;39559;48.630;9.162;2024-01-27T10:25:07;99397.22;;;5.99;100.00
498;BME280;39559;48.630;9.162;2024-01-27T10:27:33;99397.69;;;5.51;100.00
498;BME280;39559;48.630;9.162;2024-01-27T10:29:58;99405.47;;;4.73;100.00
498;BME280;39559;48.630;9.162;2024-01-27T10:32:24;99410.53;;;4.67;100.00
498;BME280;39559;48.630;9.162;2024-01-27T10:35:09;99410.56;;;4.69;100.00
498;BME280;39559;48.630;9.162;2024-01-27T10:39:02;99415.59;;;4.59;100.00
498;BME280;39559;48.630;9.162;2024-01-27T10:41:28;99401.59;;;4.37;100.00
498;BME280;39559;48.630;9.162;2024-01-27T10:43:56;99398.81;;;4.23;100.00
498;BME280;39559;48.630;9.162;2024-01-27T10:46:24;99399.16;;;4.48;100.00
498;BME280;39559;48.630;9.162;2024-01-27T10:48:51;99395.47;;;4.28;100.00
498;BME280;39559;48.630;9.162;2024-01-27T10:51:23;99383.41;;;4.23;100.00
498;BME280;39559;48.630;9.162;2024-01-27T10:54:01;99366.22;;;4.19;100.00
498;BME280;39559;48.630;9.162;2024-01-27T10:56:27;99364.56;;;4.25;100.00
498;BME280;39559;48.630;9.162;2024-01-27T10:58:54;99360.88;;;4.06;100.00
498;BME280;39559;48.630;9.162;2024-01-27T11:03:06;99357.81;;;3.70;100.00
498;BME280;39559;48.630;9.162;2024-01-27T11:05:35;99350.06;;;3.69;100.00
498;BME280;39559;48.630;9.162;2024-01-27T11:08:02;99345.94;;;3.78;100.00
498;BME280;39559;48.630;9.162;2024-01-27T11:10:29;99345.84;;;3.72;100.00
498;BME280;39559;48.630;9.162;2024-01-27T11:13:02;99339.28;;;3.93;100.00
498;BME280;39559;48.630;9.162;2024-01-27T11:15:28;99339.16;;;3.83;100.00
498;BME280;39559;48.630;9.162;2024-01-27T11:17:57;99326.28;;;3.82;100.00
498;BME280;39559;48.630;9.162;2024-01-27T11:20:24;99324.97;;;4.12;100.00
498;BME280;39559;48.630;9.162;2024-01-27T11:22:49;99324.22;;;4.22;100.00
498;BME280;39559;48.630;9.162;2024-01-27T11:27:06;99315.91;;;4.41;100.00
498;BME280;39559;48.630;9.162;2024-01-27T11:29:32;99321.25;;;4.60;100.00
498;BME280;39559;48.630;9.162;2024-01-27T11:32:01;99317.88;;;4.63;100.00
498;BME280;39559;48.630;9.162;2024-01-27T11:34:45;99317.22;;;4.82;100.00
498;BME280;39559;48.630;9.162;2024-01-27T11:37:15;99308.09;;;5.19;100.00
498;BME280;39559;48.630;9.162;2024-01-27T11:39:42;99313.31;;;5.27;100.00
498;BME280;39559;48.630;9.162;2024-01-27T11:42:12;99307.81;;;5.98;100.00
498;BME280;39559;48.630;9.162;2024-01-27T11:44:39;99302.84;;;6.45;100.00
498;BME280;39559;48.630;9.162;2024-01-27T11:47:16;99306.44;;;7.20;100.00
498;BME280;39559;48.630;9.162;2024-01-27T11:51:11;99298.63;;;7.75;100.00
498;BME280;39559;48.630;9.162;2024-01-27T11:53:37;99298.50;;;8.20;100.00
498;BME280;39559;48.630;9.162;2024-01-27T11:56:04;99296.25;;;9.14;100.00
498;BME280;39559;48.630;9.162;2024-01-27T11:58:30;99306.91;;;8.71;100.00
498;BME280;39559;48.630;9.162;2024-01-27T12:00:56;99311.09;;;8.94;100.00
498;BME280;39559;48.630;9.162;2024-01-27T12:03:22;99302.94;;;9.43;100.00
498;BME280;39559;48.630;9.162;2024-01-27T12:05:48;99297.94;;;9.23;100.00
498;BME280;39559;48.630;9.162;2024-01-27T12:08:13;99300.28;;;9.49;100.00
498;BME280;39559;48.630;9.162;2024-01-27T12:10:39;99300.44;;;10.19;100.00
498;BME280;39559;48.630;9.162;2024-01-27T12:15:07;99294.72;;;9.89;98.27
498;BME280;39559;48.630;9.162;2024-01-27T12:17:33;99281.13;;;9.66;99.60
498;BME280;39559;48.630;9.162;2024-01-27T12:19:59;99287.47;;;9.35;94.09
498;BME280;39559;48.630;9.162;2024-01-27T12:22:27;99284.34;;;8.89;100.00
498;BME280;39559;48.630;9.162;2024-01-27T12:25:07;99276.38;;;9.16;97.56
498;BME280;39559;48.630;9.162;2024-01-27T12:27:33;99280.22;;;8.61;100.00
498;BME280;39559;48.630;9.162;2024-01-27T12:30:01;99286.50;;;7.96;100.00
498;BME280;39559;48.630;9.162;2024-01-27T12:32:27;99269.97;;;8.32;100.00
498;BME280;39559;48.630;9.162;2024-01-27T12:34:52;99260.19;;;8.85;100.00
498;BME280;39559;48.630;9.162;2024-01-27T12:39:10;99255.03;;;8.83;99.68
498;BME280;39559;48.630;9.162;2024-01-27T12:41:35;99254.31;;;8.63;90.39
498;BME280;39559;48.630;9.162;2024-01-27T12:44:01;99257.88;;;8.45;92.51
498;BME280;39559;48.630;9.162;2024-01-27T12:46:28;99252.94;;;7.76;86.16
498;BME280;39559;48.630;9.162;2024-01-27T12:48:53;99238.31;;;7.68;81.47
498;BME280;39559;48.630;9.162;2024-01-27T12:51:19;99233.22;;;7.10;86.84
498;BME280;39559;48.630;9.162;2024-01-27T12:53:45;99232.22;;;7.88;98.31
498;BME280;39559;48.630;9.162;2024-01-27T12:56:13;99234.81;;;7.83;93.79
498;BME280;39559;48.630;9.162;2024-01-27T12:58:40;99234.91;;;7.48;97.76
498;BME280;39559;48.630;9.162;2024-01-27T13:03:12;99238.41;;;7.08;100.00
498;BME280;39559;48.630;9.162;2024-01-27T13:05:38;99240.94;;;6.58;100.00
498;BME280;39559;48.630;9.162;2024-01-27T13:08:05;99231.41;;;6.27;100.00
498;BME280;39559;48.630;9.162;2024-01-27T13:10:30;99229.72;;;6.29;100.00
498;BME280;39559;48.630;9.162;2024-01-27T13:12:56;99225.44;;;6.58;100.00
498;BME280;39559;48.630;9.162;2024-01-27T13:15:23;99230.59;;;6.53;100.00
498;BME280;39559;48.630;9.162;2024-01-27T13:17:50;99227.22;;;6.97;100.00
498;BME280;39559;48.630;9.162;2024-01-27T13:20:16;99226.34;;;7.01;100.00
498;BME280;39559;48.630;9.162;2024-01-27T13:22:43;99226.31;;;7.21;100.00
498;BME280;39559;48.630;9.162;2024-01-27T13:27:12;99214.94;;;7.96;100.00
498;BME280;39559;48.630;9.162;2024-01-27T13:29:38;99223.72;;;7.44;100.00
498;BME280;39559;48.630;9.162;2024-01-27T13:32:04;99223.72;;;7.27;100.00
498;BME280;39559;48.630;9.162;2024-01-27T13:34:29;99221.16;;;7.26;100.00
498;BME280;39559;48.630;9.162;2024-01-27T13:36:56;99213.31;;;7.67;100.00
498;BME280;39559;48.630;9.162;2024-01-27T13:39:22;99213.19;;;8.06;100.00
498;BME280;39559;48.630;9.162;2024-01-27T13:41:47;99214.03;;;8.00;100.00
498;BME280;39559;48.630;9.162;2024-01-27T13:44:13;99206.09;;;8.43;100.00
498;BME280;39559;48.630;9.162;2024-01-27T13:46:38;99202.03;;;9.21;100.00
498;BME280;39559;48.630;9.162;2024-01-27T13:51:13;99196.78;;;10.05;92.10
498;BME280;39559;48.630;9.162;2024-01-27T13:53:38;99204.72;;;9.91;83.66
498;BME280;39559;48.630;9.162;2024-01-27T13:56:04;99201.28;;;9.91;79.08
498;BME280;39559;48.630;9.162;2024-01-27T13:58:30;99204.84;;;9.82;76.66
498;BME280;39559;48.630;9.162;2024-01-27T14:00:56;99207.50;;;9.77;75.31
498;BME280;39559;48.630;9.162;2024-01-27T14:03:21;99199.50;;;9.94;79.57
498;BME280;39559;48.630;9.162;2024-01-27T14:05:47;99203.84;;;9.12;80.11
498;BME280;39559;48.630;9.162;2024-01-27T14:08:13;99216.44;;;8.47;86.58
498;BME280;39559;48.630;9.162;2024-01-27T14:10:40;99209.44;;;8.62;92.70
498;BME280;39559;48.630;9.162;2024-01-27T14:15:13;99213.06;;;8.26;95.84
498;BME280;39559;48.630;9.162;2024-01-27T14:17:40;99214.13;;;7.80;96.62
498;BME280;39559;48.630;9.162;2024-01-27T14:20:06;99205.44;;;8.00;96.15
498;BME280;39559;48.630;9.162;2024-01-27T14:22:34;99203.03;;;7.41;100.00